Time;durP1;ratioP1;P1;durP2;ratioP2;P2;SDS_P1;SDS_P2;PMS_P1;PMS_P2;Temp;Humidity;BMP_temperature;BMP_pressure;BME280_temperature;BME280_humidity;BME280_pressure;Samples;Min_cycle;Max_cycle;Signal;HPM_P1;HPM_P2
2021/01/06 00:00:00;;;;;;;23.33;15.27;;;4.60;95.90;;;;;;5008838;28;20649;-43
2021/01/06 00:02:26;;;;;;;20.60;13.98;;;4.50;95.90;;;;;;5009130;28;20042;-42
2021/01/06 00:04:51;;;;;;;24.88;15.25;;;4.50;95.80;;;;;;5009286;28;20028;-42
2021/01/06 00:07:17;;;;;;;19.73;13.32;;;4.50;95.80;;;;;;5008175;28;20021;-42
2021/01/06 00:09:42;;;;;;;21.65;13.98;;;4.50;95.80;;;;;;5006383;28;20038;-42
2021/01/06 00:12:09;;;;;;;21.88;15.00;;;4.50;95.80;;;;;;5008145;28;20173;-43
2021/01/06 00:14:34;;;;;;;20.40;13.48;;;4.50;95.90;;;;;;5008065;28;20026;-43
2021/01/06 00:17:00;;;;;;;22.30;14.63;;;4.50;95.90;;;;;;5008587;28;20030;-43
2021/01/06 00:19:25;;;;;;;21.67;13.02;;;4.50;96.00;;;;;;5008332;28;20600;-42
2021/01/06 00:21:51;;;;;;;16.92;12.60;;;4.60;95.90;;;;;;5008406;28;20429;-42
2021/01/06 00:24:17;;;;;;;19.20;12.43;;;4.50;95.80;;;;;;5008515;28;20030;-43
2021/01/06 00:26:43;;;;;;;24.75;16.83;;;4.50;95.90;;;;;;5008491;28;20038;-44
2021/01/06 00:29:10;;;;;;;23.08;14.93;;;4.50;95.90;;;;;;5008073;28;20038;-42
2021/01/06 00:31:43;;;;;;;23.75;15.18;;;4.50;95.90;;;;;;5008207;28;20026;-42
2021/01/06 00:34:10;;;;;;;25.83;15.48;;;4.40;96.00;;;;;;5008104;28;20033;-43
2021/01/06 00:36:36;;;;;;;26.92;16.08;;;4.40;96.00;;;;;;5008105;28;20053;-43
2021/01/06 00:39:05;;;;;;;28.70;17.73;;;4.40;96.10;;;;;;5008408;28;20022;-42
2021/01/06 00:41:32;;;;;;;20.58;13.88;;;4.40;96.10;;;;;;5007518;28;20033;-42
2021/01/06 00:43:58;;;;;;;25.38;16.48;;;4.40;96.20;;;;;;5008460;28;20018;-43
2021/01/06 00:46:29;;;;;;;21.23;14.20;;;4.40;96.20;;;;;;5007389;28;20533;-42
2021/01/06 00:48:56;;;;;;;18.98;12.77;;;4.40;96.20;;;;;;5007941;28;20390;-44
2021/01/06 00:51:21;;;;;;;18.80;12.85;;;4.40;96.30;;;;;;5007757;28;20049;-42
2021/01/06 00:53:47;;;;;;;27.83;16.35;;;4.40;96.30;;;;;;5007800;28;20168;-43
2021/01/06 00:56:12;;;;;;;26.95;15.13;;;4.40;96.30;;;;;;5007351;28;20040;-43
2021/01/06 00:58:38;;;;;;;22.25;15.40;;;4.40;96.30;;;;;;5008179;28;20022;-43
2021/01/06 01:01:03;;;;;;;23.60;15.43;;;4.40;96.20;;;;;;5007951;28;20081;-43
2021/01/06 01:03:29;;;;;;;23.00;15.05;;;4.40;96.20;;;;;;5007141;28;20030;-43
2021/01/06 01:05:55;;;;;;;22.15;14.48;;;4.40;96.20;;;;;;5008005;28;20030;-42
2021/01/06 01:08:20;;;;;;;22.10;15.15;;;4.40;96.20;;;;;;5007624;28;20500;-43
2021/01/06 01:10:48;;;;;;;21.25;14.90;;;4.40;96.20;;;;;;5007372;28;20482;-43
2021/01/06 01:13:24;;;;;;;22.73;15.48;;;4.40;96.20;;;;;;5007240;28;20033;-43
2021/01/06 01:15:53;;;;;;;23.08;15.13;;;4.40;96.10;;;;;;5008266;28;20041;-44
2021/01/06 01:18:22;;;;;;;24.38;15.60;;;4.40;96.10;;;;;;5006928;28;20116;-43
2021/01/06 01:20:50;;;;;;;22.23;15.10;;;4.40;96.10;;;;;;5007863;28;20034;-42
2021/01/06 01:23:17;;;;;;;24.52;15.57;;;4.40;96.10;;;;;;5006814;28;20531;-42
2021/01/06 01:25:43;;;;;;;25.35;16.83;;;4.40;96.10;;;;;;5007667;28;20095;-43
2021/01/06 01:28:15;;;;;;;21.65;14.50;;;4.40;96.00;;;;;;5007756;28;20018;-42
2021/01/06 01:30:40;;;;;;;25.77;16.10;;;4.40;96.00;;;;;;5007531;28;20072;-42
2021/01/06 01:33:06;;;;;;;26.58;16.15;;;4.40;96.00;;;;;;5007681;28;20494;-42
2021/01/06 01:35:33;;;;;;;21.67;14.43;;;4.40;96.00;;;;;;5006760;28;20037;-42
2021/01/06 01:38:01;;;;;;;18.98;13.23;;;4.40;95.90;;;;;;5007575;28;20048;-42
2021/01/06 01:40:33;;;;;;;25.52;14.10;;;4.40;96.00;;;;;;5007114;28;20030;-43
2021/01/06 01:43:14;;;;;;;19.67;13.68;;;4.40;96.30;;;;;;5007442;28;20148;-44
2021/01/06 01:45:46;;;;;;;21.13;13.52;;;4.40;96.00;;;;;;5006911;28;20030;-43
2021/01/06 01:48:27;;;;;;;20.60;13.20;;;4.40;96.00;;;;;;5007473;28;20095;-43
2021/01/06 01:50:55;;;;;;;19.58;14.27;;;4.40;96.00;;;;;;5007652;28;20042;-43
2021/01/06 01:53:31;;;;;;;19.15;13.38;;;4.40;96.00;;;;;;5006651;28;20034;-43
2021/01/06 01:55:59;;;;;;;22.23;14.25;;;4.30;95.90;;;;;;5007733;28;20029;-43
2021/01/06 01:58:27;;;;;;;18.33;13.35;;;4.30;95.90;;;;;;5006516;28;20057;-42
2021/01/06 02:00:55;;;;;;;17.92;12.82;;;4.30;95.80;;;;;;5007070;28;20057;-42
2021/01/06 02:03:55;;;;;;;18.42;12.10;;;4.30;95.80;;;;;;5006516;28;20026;-42
2021/01/06 02:06:32;;;;;;;23.13;14.85;;;4.40;95.90;;;;;;5006644;28;20116;-42
2021/01/06 02:09:05;;;;;;;19.30;13.85;;;4.40;95.70;;;;;;5006923;28;20749;-43
2021/01/06 02:11:39;;;;;;;16.38;12.90;;;4.40;95.80;;;;;;5006645;28;20124;-42
2021/01/06 02:14:13;;;;;;;19.00;13.57;;;4.30;95.70;;;;;;5006683;28;20248;-42
2021/01/06 02:17:02;;;;;;;22.05;14.25;;;4.30;95.60;;;;;;5006578;28;20474;-43
2021/01/06 02:19:32;;;;;;;21.38;13.32;;;4.30;95.70;;;;;;5005674;28;20149;-42
2021/01/06 02:21:58;;;;;;;17.88;12.88;;;4.40;95.60;;;;;;5006183;28;20036;-42
2021/01/06 02:24:24;;;;;;;19.50;12.85;;;4.40;95.60;;;;;;5006068;28;20030;-43
2021/01/06 02:26:50;;;;;;;18.60;12.05;;;4.40;95.50;;;;;;5006436;28;20029;-44
2021/01/06 02:29:15;;;;;;;20.67;13.43;;;4.30;95.40;;;;;;5005679;28;20038;-43
2021/01/06 02:31:41;;;;;;;17.48;13.10;;;4.30;95.50;;;;;;5006715;28;20422;-43
2021/01/06 02:34:07;;;;;;;19.73;13.30;;;4.30;95.50;;;;;;5005976;28;20033;-42
2021/01/06 02:36:32;;;;;;;24.27;14.80;;;4.30;95.50;;;;;;5006142;28;20780;-42
2021/01/06 02:38:58;;;;;;;17.83;12.60;;;4.30;95.50;;;;;;5006510;28;20029;-42
2021/01/06 02:41:24;;;;;;;17.85;12.88;;;4.30;95.40;;;;;;5009478;28;20381;-42
2021/01/06 02:43:51;;;;;;;21.10;14.43;;;4.20;95.40;;;;;;5010045;28;20064;-43
2021/01/06 02:46:17;;;;;;;17.55;13.55;;;4.30;95.40;;;;;;5009565;28;20029;-42
2021/01/06 02:48:44;;;;;;;21.52;15.25;;;4.20;95.30;;;;;;5009463;28;20033;-42
2021/01/06 02:51:21;;;;;;;19.38;14.55;;;4.20;95.30;;;;;;5010041;28;20591;-43
2021/01/06 02:53:59;;;;;;;17.33;12.32;;;4.20;95.30;;;;;;5010128;28;20087;-43
2021/01/06 02:56:24;;;;;;;16.52;12.38;;;4.20;95.30;;;;;;5009136;28;20680;-42
2021/01/06 02:58:52;;;;;;;14.52;11.30;;;4.20;95.40;;;;;;5010207;28;20469;-43
2021/01/06 03:01:21;;;;;;;20.33;13.45;;;4.20;95.40;;;;;;5009121;28;20076;-42
2021/01/06 03:03:51;;;;;;;20.73;14.77;;;4.20;95.40;;;;;;5009769;28;20034;-43
2021/01/06 03:06:39;;;;;;;19.25;13.40;;;4.20;95.30;;;;;;5009235;28;20100;-43
2021/01/06 03:09:07;;;;;;;21.55;13.85;;;4.20;95.30;;;;;;5009205;28;20057;-42
2021/01/06 03:11:33;;;;;;;16.63;12.88;;;4.20;95.30;;;;;;5009427;28;20030;-43
2021/01/06 03:13:58;;;;;;;16.75;12.35;;;4.20;95.40;;;;;;5009762;28;20022;-43
2021/01/06 03:16:24;;;;;;;19.77;14.30;;;4.20;95.30;;;;;;5008480;28;20033;-42
2021/01/06 03:18:50;;;;;;;15.73;12.18;;;4.20;95.20;;;;;;5009898;28;20080;-42
2021/01/06 03:21:16;;;;;;;19.65;14.20;;;4.20;95.20;;;;;;5008903;28;20018;-43
2021/01/06 03:23:47;;;;;;;16.75;13.15;;;4.10;95.20;;;;;;5009426;28;20018;-42
2021/01/06 03:26:17;;;;;;;19.35;13.68;;;4.10;95.20;;;;;;5009239;28;20206;-43
2021/01/06 03:28:43;;;;;;;17.75;12.70;;;4.10;95.20;;;;;;5009438;28;20469;-45
2021/01/06 03:31:15;;;;;;;20.75;14.75;;;4.10;95.20;;;;;;5009107;28;20037;-43
2021/01/06 03:34:21;;;;;;;18.27;13.65;;;4.10;95.20;;;;;;5009625;28;20033;-42
2021/01/06 03:37:13;;;;;;;19.30;14.07;;;4.10;95.10;;;;;;5009689;28;20025;-43
2021/01/06 03:39:47;;;;;;;18.20;12.77;;;4.10;95.00;;;;;;4994526;28;20038;-43
2021/01/06 03:42:14;;;;;;;18.73;14.00;;;4.10;95.00;;;;;;5008707;28;20413;-43
2021/01/06 03:44:41;;;;;;;18.90;13.90;;;4.10;95.20;;;;;;5008828;28;20036;-43
2021/01/06 03:47:17;;;;;;;16.70;12.55;;;4.10;95.10;;;;;;5009271;28;20022;-43
2021/01/06 03:49:55;;;;;;;17.98;13.07;;;4.00;95.10;;;;;;5009236;28;20412;-43
2021/01/06 03:52:46;;;;;;;17.63;13.57;;;4.10;95.20;;;;;;5007442;28;20026;-43
2021/01/06 03:55:31;;;;;;;18.13;12.80;;;4.10;95.20;;;;;;5008804;28;20030;-43
2021/01/06 03:57:57;;;;;;;20.27;14.70;;;4.10;94.90;;;;;;5008734;28;20116;-42
2021/01/06 04:00:55;;;;;;;17.88;13.48;;;4.00;95.00;;;;;;5008169;28;20765;-43
2021/01/06 04:03:56;;;;;;;19.27;13.95;;;4.00;95.00;;;;;;5008174;28;20121;-44
2021/01/06 04:06:25;;;;;;;17.55;13.25;;;4.00;95.00;;;;;;5007778;28;20092;-43
2021/01/06 04:08:55;;;;;;;22.38;15.10;;;4.00;95.00;;;;;;5008734;28;20113;-43
2021/01/06 04:11:26;;;;;;;20.98;13.35;;;4.00;95.00;;;;;;5008062;28;20039;-42
2021/01/06 04:13:52;;;;;;;18.98;13.27;;;4.00;95.00;;;;;;5007720;28;20097;-42
2021/01/06 04:16:17;;;;;;;15.68;12.20;;;4.00;95.00;;;;;;5008418;28;20121;-42
2021/01/06 04:18:44;;;;;;;19.15;13.45;;;4.00;95.00;;;;;;5008447;28;20040;-42
2021/01/06 04:21:10;;;;;;;25.30;14.30;;;3.90;94.90;;;;;;5008369;28;20030;-43
2021/01/06 04:23:35;;;;;;;17.73;13.13;;;4.00;95.20;;;;;;5008067;28;20069;-42
2021/01/06 04:26:01;;;;;;;19.02;13.80;;;4.00;95.00;;;;;;5008374;28;20061;-43
2021/01/06 04:28:29;;;;;;;19.08;14.02;;;3.90;95.10;;;;;;5007756;28;20025;-43
2021/01/06 04:31:16;;;;;;;22.17;14.10;;;4.00;94.90;;;;;;5008213;28;20053;-43
2021/01/06 04:33:45;;;;;;;19.15;12.90;;;4.00;94.90;;;;;;5007828;28;20033;-43
2021/01/06 04:36:27;;;;;;;16.23;11.95;;;4.00;94.80;;;;;;5007798;28;20030;-43
2021/01/06 04:38:56;;;;;;;23.38;15.50;;;4.00;94.80;;;;;;5008005;28;20034;-42
2021/01/06 04:41:36;;;;;;;18.70;13.57;;;3.90;94.90;;;;;;5006976;28;20631;-42
2021/01/06 04:44:07;;;;;;;20.05;14.32;;;3.90;94.90;;;;;;5007967;28;20080;-42
2021/01/06 04:46:47;;;;;;;19.42;14.05;;;3.90;94.90;;;;;;5007681;28;20121;-43
2021/01/06 04:49:37;;;;;;;22.02;14.57;;;3.90;94.90;;;;;;5006746;28;20109;-42
2021/01/06 04:52:21;;;;;;;20.92;15.52;;;3.90;95.10;;;;;;5008138;28;20062;-42
2021/01/06 04:55:13;;;;;;;19.52;13.48;;;3.90;94.90;;;;;;5007652;28;20053;-42
2021/01/06 04:58:03;;;;;;;23.05;14.15;;;3.80;94.90;;;;;;5007995;28;20164;-43
2021/01/06 05:00:46;;;;;;;20.58;14.02;;;3.80;95.00;;;;;;5006730;28;20056;-42
2021/01/06 05:03:36;;;;;;;17.60;12.68;;;3.70;95.10;;;;;;5006810;28;20034;-42
2021/01/06 05:06:46;;;;;;;21.48;13.90;;;3.70;95.10;;;;;;5007892;28;20838;-43
2021/01/06 05:09:21;;;;;;;19.77;13.65;;;3.70;95.20;;;;;;4981514;28;20165;-42
2021/01/06 05:11:55;;;;;;;18.80;13.85;;;3.70;95.20;;;;;;5007476;28;20029;-42
2021/01/06 05:14:29;;;;;;;20.30;13.52;;;3.70;95.20;;;;;;5006671;28;20490;-42
2021/01/06 05:16:56;;;;;;;21.95;14.43;;;3.70;95.30;;;;;;5007127;28;20497;-43
2021/01/06 05:19:28;;;;;;;19.20;14.02;;;3.70;95.20;;;;;;5006795;28;20034;-42
2021/01/06 05:21:54;;;;;;;19.95;13.10;;;3.70;95.20;;;;;;5007427;28;20168;-42
2021/01/06 05:24:22;;;;;;;18.52;13.30;;;3.70;95.20;;;;;;5006409;28;20097;-42
2021/01/06 05:26:55;;;;;;;17.98;13.32;;;3.70;95.20;;;;;;5007100;28;20034;-42
2021/01/06 05:29:29;;;;;;;20.52;12.85;;;3.70;95.20;;;;;;5006872;28;20717;-42
2021/01/06 05:31:54;;;;;;;19.35;13.82;;;3.70;95.20;;;;;;5007609;28;20029;-42
2021/01/06 05:34:22;;;;;;;18.48;13.38;;;3.70;95.10;;;;;;5006689;28;20037;-42
2021/01/06 05:36:48;;;;;;;19.48;13.25;;;3.70;95.00;;;;;;5006926;28;20084;-43
2021/01/06 05:39:26;;;;;;;18.45;12.43;;;3.70;95.00;;;;;;5006234;28;20026;-42
2021/01/06 05:42:04;;;;;;;18.40;13.23;;;3.70;95.00;;;;;;5007067;28;20037;-43
2021/01/06 05:44:31;;;;;;;19.17;13.38;;;3.70;94.90;;;;;;5006138;28;20030;-42
2021/01/06 05:46:57;;;;;;;18.40;13.32;;;3.60;94.80;;;;;;5007256;28;20084;-42
2021/01/06 05:49:27;;;;;;;18.98;12.73;;;3.60;94.90;;;;;;5006222;28;20368;-44
2021/01/06 05:51:56;;;;;;;18.60;13.85;;;3.60;94.90;;;;;;5006494;28;20022;-42
2021/01/06 05:54:48;;;;;;;16.63;11.52;;;3.60;94.90;;;;;;5006809;28;20128;-42
2021/01/06 05:57:28;;;;;;;17.17;11.88;;;3.60;94.90;;;;;;5005927;28;20034;-42
2021/01/06 06:00:27;;;;;;;13.60;10.73;;;3.60;95.00;;;;;;5006429;28;20096;-43
2021/01/06 06:03:24;;;;;;;18.67;11.48;;;3.60;94.90;;;;;;4956564;28;20121;-43
2021/01/06 06:06:07;;;;;;;16.17;11.65;;;3.60;94.80;;;;;;5006105;28;20033;-42
2021/01/06 06:09:00;;;;;;;14.55;10.70;;;3.50;94.80;;;;;;5006191;28;20526;-42
2021/01/06 06:12:07;;;;;;;19.00;12.93;;;3.50;94.80;;;;;;5006378;28;20042;-42
2021/01/06 06:14:58;;;;;;;19.38;11.60;;;3.40;94.80;;;;;;5005467;28;20041;-43
2021/01/06 06:18:10;;;;;;;15.52;11.30;;;3.40;94.90;;;;;;5006056;28;20100;-43
2021/01/06 06:21:01;;;;;;;13.20;10.10;;;3.30;94.90;;;;;;5006123;28;20501;-42
2021/01/06 06:24:10;;;;;;;16.48;11.15;;;3.30;94.90;;;;;;5006348;28;20033;-43
2021/01/06 06:27:02;;;;;;;16.52;11.70;;;3.20;95.00;;;;;;4979556;28;20057;-44
2021/01/06 06:30:01;;;;;;;13.63;10.57;;;3.20;95.00;;;;;;5005536;28;20038;-45
2021/01/06 06:32:30;;;;;;;14.95;10.48;;;3.10;95.00;;;;;;4967637;28;20045;-43
2021/01/06 06:35:06;;;;;;;14.98;10.75;;;3.10;95.10;;;;;;5006270;28;20647;-43
2021/01/06 06:37:32;;;;;;;12.55;10.05;;;3.10;95.10;;;;;;5005524;28;20516;-43
2021/01/06 06:39:57;;;;;;;13.82;10.63;;;3.10;95.10;;;;;;5006222;28;20143;-42
2021/01/06 06:42:31;;;;;;;13.95;10.35;;;3.10;95.10;;;;;;5005901;28;20064;-42
2021/01/06 06:45:35;;;;;;;13.27;9.55;;;3.10;95.10;;;;;;5006391;28;20026;-42
2021/01/06 06:48:35;;;;;;;14.02;10.73;;;3.00;95.00;;;;;;5005611;28;20030;-42
2021/01/06 06:51:17;;;;;;;17.15;10.23;;;3.00;95.00;;;;;;4984021;28;20486;-42
2021/01/06 06:54:04;;;;;;;15.73;11.32;;;3.00;95.00;;;;;;4986145;28;20555;-42
2021/01/06 06:56:57;;;;;;;15.20;10.80;;;3.00;95.00;;;;;;4991072;28;20033;-41
2021/01/06 06:59:51;;;;;;;15.75;11.13;;;2.90;95.00;;;;;;5001122;28;20044;-42
2021/01/06 07:02:16;;;;;;;17.25;11.10;;;3.00;95.10;;;;;;5004182;28;20120;-43
2021/01/06 07:04:50;;;;;;;16.70;11.23;;;2.90;95.00;;;;;;4992795;28;20431;-43
2021/01/06 07:07:41;;;;;;;18.42;11.45;;;2.90;95.00;;;;;;4985181;28;20522;-43
2021/01/06 07:10:18;;;;;;;17.98;11.80;;;2.90;95.00;;;;;;4984848;28;20414;-42
2021/01/06 07:12:45;;;;;;;17.45;11.82;;;2.90;95.00;;;;;;4985086;28;20037;-42
2021/01/06 07:15:32;;;;;;;17.17;11.70;;;2.90;95.10;;;;;;4984943;28;20030;-43
2021/01/06 07:18:00;;;;;;;16.40;11.95;;;2.90;95.10;;;;;;4985587;28;20107;-42
2021/01/06 07:20:41;;;;;;;16.27;11.20;;;3.00;95.10;;;;;;4985565;28;20676;-43
2021/01/06 07:23:21;;;;;;;17.00;12.10;;;3.00;95.10;;;;;;4991750;28;20026;-43
2021/01/06 07:26:01;;;;;;;14.18;10.63;;;3.00;95.10;;;;;;4994774;28;20608;-43
2021/01/06 07:28:28;;;;;;;15.65;11.30;;;3.10;95.00;;;;;;4989194;28;20027;-42
2021/01/06 07:30:54;;;;;;;17.92;12.60;;;3.10;95.00;;;;;;4988969;28;20470;-43
2021/01/06 07:33:42;;;;;;;20.17;12.63;;;3.20;94.90;;;;;;4988891;28;20022;-42
2021/01/06 07:36:20;;;;;;;18.13;11.65;;;3.20;94.80;;;;;;4988906;28;20140;-43
2021/01/06 07:38:47;;;;;;;15.85;10.43;;;3.30;94.70;;;;;;4987045;28;20030;-42
2021/01/06 07:41:14;;;;;;;16.85;11.23;;;3.30;94.70;;;;;;4987101;28;20026;-40
2021/01/06 07:44:04;;;;;;;15.05;10.38;;;3.30;94.60;;;;;;4987214;28;20092;-43
2021/01/06 07:46:53;;;;;;;16.95;11.60;;;3.30;94.70;;;;;;4987189;28;20030;-43
2021/01/06 07:49:42;;;;;;;18.30;11.00;;;3.30;94.60;;;;;;4976418;28;20046;-43
2021/01/06 07:52:30;;;;;;;15.23;10.60;;;3.30;94.50;;;;;;4986992;28;20114;-42
2021/01/06 07:55:04;;;;;;;18.10;11.30;;;3.40;94.50;;;;;;4987191;28;20089;-43
2021/01/06 07:57:43;;;;;;;14.13;10.02;;;3.40;94.60;;;;;;4987033;28;20115;-42
2021/01/06 08:00:11;;;;;;;17.02;10.32;;;3.40;94.60;;;;;;4987620;28;20053;-44
2021/01/06 08:02:47;;;;;;;16.50;11.13;;;3.40;94.60;;;;;;4987441;28;20033;-43
2021/01/06 08:05:23;;;;;;;14.00;9.77;;;3.50;94.60;;;;;;4986523;28;20403;-44
2021/01/06 08:08:00;;;;;;;15.52;10.38;;;3.50;94.60;;;;;;4987556;28;20030;-43
2021/01/06 08:10:28;;;;;;;18.17;11.27;;;3.50;94.50;;;;;;4987027;28;20057;-43
2021/01/06 08:13:15;;;;;;;12.80;9.95;;;3.50;94.60;;;;;;4987030;28;20031;-43
2021/01/06 08:15:42;;;;;;;16.27;10.27;;;3.50;94.50;;;;;;4986872;28;20026;-43
2021/01/06 08:18:10;;;;;;;16.80;10.93;;;3.50;94.60;;;;;;4987241;28;20033;-43
2021/01/06 08:20:38;;;;;;;14.25;10.50;;;3.60;94.50;;;;;;4987336;28;20026;-43
2021/01/06 08:23:28;;;;;;;17.30;12.10;;;3.60;94.50;;;;;;4987937;28;20049;-43
2021/01/06 08:26:01;;;;;;;17.17;11.65;;;3.60;94.40;;;;;;4987324;28;20037;-43
2021/01/06 08:28:29;;;;;;;16.95;11.77;;;3.60;94.30;;;;;;5006868;28;20041;-42
2021/01/06 08:31:14;;;;;;;18.90;12.95;;;3.50;94.40;;;;;;5008550;28;20152;-44
2021/01/06 08:33:47;;;;;;;17.55;11.65;;;3.60;94.40;;;;;;5008530;28;20026;-44
2021/01/06 08:36:19;;;;;;;16.50;11.75;;;3.60;94.60;;;;;;5007927;28;20041;-42
2021/01/06 08:38:45;;;;;;;21.25;12.85;;;3.60;94.40;;;;;;5007662;28;20493;-42
2021/01/06 08:41:19;;;;;;;18.02;12.82;;;3.60;94.40;;;;;;5007698;28;20061;-42
2021/01/06 08:43:45;;;;;;;19.05;13.38;;;3.60;94.30;;;;;;5008679;28;20060;-43
2021/01/06 08:46:24;;;;;;;20.00;14.02;;;3.60;94.20;;;;;;5006530;28;20033;-44
2021/01/06 08:48:50;;;;;;;18.92;12.88;;;3.60;94.10;;;;;;4992983;28;20036;-43
2021/01/06 08:51:29;;;;;;;16.45;11.80;;;3.60;94.10;;;;;;5007514;28;20056;-43
2021/01/06 08:53:55;;;;;;;18.05;12.25;;;3.50;94.00;;;;;;5007521;28;20425;-43
2021/01/06 08:56:24;;;;;;;17.58;12.38;;;3.50;94.10;;;;;;5007251;28;20470;-43
2021/01/06 08:58:52;;;;;;;17.02;11.63;;;3.60;94.10;;;;;;5007613;28;20136;-44
2021/01/06 09:01:33;;;;;;;20.67;12.82;;;3.60;94.20;;;;;;5006768;28;20042;-43
2021/01/06 09:04:11;;;;;;;16.73;11.93;;;3.60;94.20;;;;;;5007987;28;20041;-43
2021/01/06 09:07:08;;;;;;;15.35;11.15;;;3.60;94.10;;;;;;5006110;28;20515;-43
2021/01/06 09:10:04;;;;;;;15.77;10.80;;;3.60;93.90;;;;;;5003269;28;20140;-44
2021/01/06 09:12:38;;;;;;;18.52;11.75;;;3.60;93.90;;;;;;5004516;28;20508;-43
2021/01/06 09:15:14;;;;;;;13.45;10.48;;;3.60;93.70;;;;;;5007606;28;20030;-42
2021/01/06 09:17:51;;;;;;;14.15;10.10;;;3.60;93.60;;;;;;5007910;28;20030;-42
2021/01/06 09:20:36;;;;;;;18.52;12.38;;;3.60;93.70;;;;;;5005089;28;20037;-42
2021/01/06 09:23:02;;;;;;;17.15;12.02;;;3.70;93.70;;;;;;5007102;28;20610;-43
2021/01/06 09:25:28;;;;;;;17.55;11.15;;;3.80;93.50;;;;;;5006958;28;20080;-42
2021/01/06 09:27:58;;;;;;;16.23;11.52;;;3.70;93.30;;;;;;5007567;28;20481;-41
2021/01/06 09:30:35;;;;;;;17.60;11.40;;;3.70;93.30;;;;;;5006506;28;20034;-42
2021/01/06 09:33:03;;;;;;;15.57;11.60;;;3.70;93.40;;;;;;5007868;28;20091;-42
2021/01/06 09:35:33;;;;;;;15.85;11.85;;;3.80;93.70;;;;;;5006227;28;20057;-43
2021/01/06 09:38:28;;;;;;;17.17;10.30;;;3.80;93.40;;;;;;4987883;28;20037;-42
2021/01/06 09:40:59;;;;;;;15.70;11.35;;;3.80;93.40;;;;;;4987817;28;20030;-44
2021/01/06 09:43:38;;;;;;;17.08;11.05;;;3.80;93.10;;;;;;4987063;28;20143;-43
2021/01/06 09:46:15;;;;;;;21.23;11.48;;;3.90;93.10;;;;;;4988264;28;20030;-43
2021/01/06 09:48:48;;;;;;;17.63;11.75;;;3.90;93.10;;;;;;4987281;28;20640;-43
2021/01/06 09:51:16;;;;;;;17.40;12.38;;;3.90;93.10;;;;;;4988158;28;20062;-43
2021/01/06 09:53:42;;;;;;;16.55;11.35;;;3.90;93.00;;;;;;5002731;28;20060;-42
2021/01/06 09:56:14;;;;;;;14.52;10.13;;;3.90;92.70;;;;;;4987673;28;20502;-43
2021/01/06 09:58:40;;;;;;;16.83;12.10;;;3.90;92.60;;;;;;4987034;28;20181;-43
2021/01/06 10:01:24;;;;;;;15.20;11.45;;;4.00;92.50;;;;;;4987076;28;20097;-43
2021/01/06 10:03:53;;;;;;;13.60;9.95;;;4.00;92.50;;;;;;4986400;28;20046;-43
2021/01/06 10:06:44;;;;;;;11.82;9.18;;;3.90;92.50;;;;;;4986616;28;20074;-43
2021/01/06 10:09:23;;;;;;;14.95;11.05;;;4.00;92.60;;;;;;4950063;28;20085;-43
2021/01/06 10:12:20;;;;;;;13.85;10.20;;;4.00;92.70;;;;;;4987055;28;20482;-44
2021/01/06 10:15:08;;;;;;;14.13;10.13;;;4.00;92.60;;;;;;4987814;28;20038;-44
2021/01/06 10:17:40;;;;;;;13.50;10.07;;;4.00;92.60;;;;;;4987088;28;20749;-43
2021/01/06 10:20:21;;;;;;;16.35;11.05;;;4.00;92.60;;;;;;4987121;28;20030;-43
2021/01/06 10:22:54;;;;;;;12.63;9.25;;;4.10;92.60;;;;;;4987090;28;20030;-42
2021/01/06 10:25:34;;;;;;;13.63;9.55;;;4.10;92.60;;;;;;4986776;28;20026;-42
2021/01/06 10:28:22;;;;;;;14.88;10.60;;;4.10;92.60;;;;;;4987052;28;20086;-41
2021/01/06 10:31:10;;;;;;;14.85;10.70;;;4.20;92.50;;;;;;4986996;28;20398;-42
2021/01/06 10:33:56;;;;;;;13.45;10.00;;;4.10;92.40;;;;;;4976184;28;20035;-43
2021/01/06 10:37:04;;;;;;;15.18;10.20;;;4.10;92.50;;;;;;4986194;28;20038;-43
2021/01/06 10:39:50;;;;;;;12.20;9.20;;;4.10;91.90;;;;;;4986335;28;20033;-44
2021/01/06 10:42:21;;;;;;;15.13;9.05;;;4.10;92.20;;;;;;4986349;28;20260;-43
2021/01/06 10:45:12;;;;;;;12.63;9.55;;;4.10;92.30;;;;;;4987443;28;20030;-43
2021/01/06 10:47:45;;;;;;;12.88;8.57;;;4.10;92.10;;;;;;4986575;28;20130;-42
2021/01/06 10:50:22;;;;;;;13.98;8.77;;;4.10;91.90;;;;;;4986438;28;20058;-43
2021/01/06 10:53:13;;;;;;;13.25;8.80;;;4.10;92.00;;;;;;4987022;28;20073;-43
2021/01/06 10:56:08;;;;;;;13.57;9.30;;;4.10;92.00;;;;;;4986907;28;20142;-42
2021/01/06 10:58:46;;;;;;;14.27;8.77;;;4.10;92.00;;;;;;4985236;28;20034;-42
2021/01/06 11:01:17;;;;;;;15.43;9.32;;;4.10;91.90;;;;;;4989906;28;20133;-42
2021/01/06 11:04:11;;;;;;;13.07;8.77;;;4.10;91.80;;;;;;4993086;28;20117;-42
2021/01/06 11:06:50;;;;;;;12.55;8.90;;;4.10;91.60;;;;;;4989792;28;20030;-43
2021/01/06 11:09:34;;;;;;;10.77;7.72;;;4.10;91.50;;;;;;4991893;28;20033;-42
2021/01/06 11:12:16;;;;;;;11.50;7.90;;;4.20;91.70;;;;;;4990111;28;20109;-43
2021/01/06 11:14:48;;;;;;;11.68;8.07;;;4.20;91.80;;;;;;4989870;28;20418;-43
2021/01/06 11:17:16;;;;;;;12.52;8.40;;;4.20;91.60;;;;;;4989536;28;20038;-43
2021/01/06 11:19:49;;;;;;;12.02;8.15;;;4.20;91.50;;;;;;4990014;28;20030;-43
2021/01/06 11:22:27;;;;;;;12.90;7.90;;;4.20;91.40;;;;;;4989343;28;20053;-44
2021/01/06 11:24:56;;;;;;;10.73;8.00;;;4.20;91.60;;;;;;4989834;28;20049;-43
2021/01/06 11:27:45;;;;;;;10.20;6.90;;;4.20;91.20;;;;;;4989175;28;20113;-43
2021/01/06 11:30:23;;;;;;;11.10;6.80;;;4.20;91.00;;;;;;4989438;28;20049;-43
2021/01/06 11:33:09;;;;;;;9.63;7.03;;;4.20;91.10;;;;;;4989872;28;20156;-43
2021/01/06 11:35:48;;;;;;;11.52;6.90;;;4.20;91.10;;;;;;4989247;28;20386;-43
2021/01/06 11:38:43;;;;;;;9.68;6.80;;;4.30;91.10;;;;;;4989505;28;20041;-43
2021/01/06 11:41:15;;;;;;;11.52;7.80;;;4.30;90.90;;;;;;4989726;28;20030;-44
2021/01/06 11:43:55;;;;;;;12.25;7.68;;;4.30;90.90;;;;;;4989010;28;20038;-42
2021/01/06 11:46:51;;;;;;;11.63;6.93;;;4.30;90.70;;;;;;4988930;28;20030;-42
2021/01/06 11:49:49;;;;;;;10.25;6.90;;;4.30;90.70;;;;;;4988508;28;20101;-42
2021/01/06 11:52:26;;;;;;;9.68;6.50;;;4.30;90.70;;;;;;4969400;28;20495;-44
2021/01/06 11:55:34;;;;;;;8.73;6.88;;;4.40;90.70;;;;;;4989597;28;20038;-43
2021/01/06 11:58:18;;;;;;;10.80;6.50;;;4.40;90.70;;;;;;4988928;28;20029;-43
2021/01/06 12:00:44;;;;;;;7.78;5.88;;;4.40;90.60;;;;;;4989003;28;20094;-43
2021/01/06 12:03:12;;;;;;;8.27;5.95;;;4.40;90.80;;;;;;4989805;28;20121;-43
2021/01/06 12:05:56;;;;;;;9.55;6.22;;;4.40;90.60;;;;;;4995745;28;20425;-42
2021/01/06 12:08:57;;;;;;;10.02;6.13;;;4.50;90.30;;;;;;4997231;28;20122;-42
2021/01/06 12:11:31;;;;;;;10.23;6.20;;;4.50;90.20;;;;;;5005125;28;20072;-43
2021/01/06 12:14:22;;;;;;;10.70;6.45;;;4.50;90.20;;;;;;5007622;28;20084;-44
2021/01/06 12:16:59;;;;;;;7.50;5.88;;;4.50;90.00;;;;;;5008503;28;20021;-42
2021/01/06 12:19:53;;;;;;;8.75;5.68;;;4.50;89.80;;;;;;5007443;28;20080;-42
2021/01/06 12:22:19;;;;;;;6.78;5.20;;;4.50;89.00;;;;;;5008328;28;20022;-42
2021/01/06 12:25:09;;;;;;;9.15;5.60;;;4.50;89.30;;;;;;5007954;28;20034;-42
2021/01/06 12:28:00;;;;;;;8.88;5.40;;;4.50;89.10;;;;;;4957544;28;20681;-43
2021/01/06 12:30:40;;;;;;;9.40;5.43;;;4.50;89.60;;;;;;5007829;28;20084;-42
2021/01/06 12:33:23;;;;;;;8.30;5.15;;;4.50;89.80;;;;;;5008329;28;20572;-41
2021/01/06 12:35:48;;;;;;;6.35;4.97;;;4.50;89.40;;;;;;5008196;28;20477;-44
2021/01/06 12:38:24;;;;;;;5.70;4.35;;;4.60;89.00;;;;;;5007742;28;20022;-43
2021/01/06 12:41:21;;;;;;;6.00;4.25;;;4.60;89.10;;;;;;5008304;28;20033;-43
2021/01/06 12:43:59;;;;;;;7.50;4.50;;;4.60;89.30;;;;;;4989003;28;20077;-44
2021/01/06 12:46:41;;;;;;;7.72;5.00;;;4.70;88.00;;;;;;4987266;28;20525;-42
2021/01/06 12:49:10;;;;;;;7.60;4.65;;;4.60;88.80;;;;;;4988953;28;20022;-42
2021/01/06 12:51:39;;;;;;;5.57;4.07;;;4.70;88.00;;;;;;4988798;28;20066;-43
2021/01/06 12:54:17;;;;;;;8.93;5.70;;;4.70;87.80;;;;;;4996591;28;20030;-44
2021/01/06 12:56:47;;;;;;;5.80;4.57;;;4.70;88.20;;;;;;4997363;28;20030;-43
2021/01/06 12:59:16;;;;;;;8.02;4.30;;;4.70;88.30;;;;;;4996235;28;20088;-43
2021/01/06 13:02:19;;;;;;;4.50;3.45;;;4.70;87.50;;;;;;5001099;28;20053;-42
2021/01/06 13:04:47;;;;;;;4.97;3.58;;;4.70;87.00;;;;;;5007719;28;20163;-43
2021/01/06 13:07:13;;;;;;;4.63;3.42;;;4.60;86.50;;;;;;5006095;28;20060;-43
2021/01/06 13:09:53;;;;;;;5.05;3.88;;;4.60;86.70;;;;;;5007691;28;20121;-42
2021/01/06 13:12:37;;;;;;;4.78;3.40;;;4.60;86.60;;;;;;5003156;28;20057;-43
2021/01/06 13:15:25;;;;;;;10.85;5.78;;;4.70;86.80;;;;;;4990368;28;20026;-43
2021/01/06 13:18:05;;;;;;;5.88;4.32;;;4.60;86.80;;;;;;4993101;28;20025;-42
2021/01/06 13:21:02;;;;;;;4.85;3.42;;;4.60;86.40;;;;;;4997377;28;20030;-43
2021/01/06 13:23:36;;;;;;;4.65;3.42;;;4.60;86.70;;;;;;4995910;28;20434;-43
2021/01/06 13:26:17;;;;;;;5.38;3.42;;;4.60;86.70;;;;;;5006354;28;20030;-41